Time;durP1;ratioP1;P1;durP2;ratioP2;P2;SDS_P1;SDS_P2;PMS_P1;PMS_P2;Temp;Humidity;BMP_temperature;BMP_pressure;BME280_temperature;BME280_humidity;BME280_pressure;Samples;Min_cycle;Max_cycle;Signal;HPM_P1;HPM_P2
2021/03/27 00:00:23;;;;;;;137.12;27.58;;;;;;;-2.87;100.00;101834.72;2579099;55;20123;-71
2021/03/27 00:02:56;;;;;;;103.90;25.33;;;;;;;-2.86;100.00;101844.28;2573839;55;20630;-71
2021/03/27 00:05:30;;;;;;;200.73;35.67;;;;;;;-2.84;100.00;101842.53;2579012;55;20119;-71
2021/03/27 00:08:13;;;;;;;177.27;33.17;;;;;;;-2.81;100.00;101846.03;2579017;55;20109;-71
2021/03/27 00:10:49;;;;;;;255.52;43.28;;;;;;;-2.87;100.00;101842.56;2578904;55;20553;-70
2021/03/27 00:13:30;;;;;;;328.15;49.92;;;;;;;-2.87;100.00;101842.56;2578990;55;20752;-70
2021/03/27 00:16:06;;;;;;;119.53;31.00;;;;;;;-2.89;100.00;101842.53;2579045;55;20118;-71
2021/03/27 00:18:42;;;;;;;105.57;29.15;;;;;;;-2.89;100.00;101844.31;2578890;55;20742;-71
2021/03/27 00:21:20;;;;;;;214.12;39.97;;;;;;;-2.87;100.00;101848.62;2578822;55;20243;-71
2021/03/27 00:23:55;;;;;;;116.95;28.90;;;;;;;-2.92;100.00;101846.91;2573688;55;20110;-71
2021/03/27 00:26:36;;;;;;;126.50;32.13;;;;;;;-2.87;100.00;101853.00;2573947;55;20520;-71
2021/03/27 00:29:10;;;;;;;310.52;58.65;;;;;;;-2.97;100.00;101834.72;2579058;55;20124;-71
2021/03/27 00:31:43;;;;;;;323.48;56.95;;;;;;;-2.95;100.00;101853.87;2578785;55;20123;-71
2021/03/27 00:34:16;;;;;;;164.55;36.75;;;;;;;-3.02;100.00;101843.44;2578818;55;20170;-71
2021/03/27 00:36:49;;;;;;;123.80;31.67;;;;;;;-3.09;100.00;101837.34;2578976;55;20185;-70
2021/03/27 00:39:23;;;;;;;267.90;49.40;;;;;;;-3.11;100.00;101839.94;2573673;55;20152;-70
2021/03/27 00:41:55;;;;;;;70.60;26.95;;;;;;;-3.06;100.00;101853.00;2578731;55;20143;-70
2021/03/27 00:44:33;;;;;;;85.22;29.17;;;;;;;-3.12;100.00;101847.78;2578970;55;20155;-70
2021/03/27 00:47:02;;;;;;;72.57;27.80;;;;;;;-3.13;100.00;101841.69;2573639;55;20131;-71
2021/03/27 00:49:40;;;;;;;93.00;28.65;;;;;;;-3.18;100.00;101850.41;2579043;55;20171;-71
2021/03/27 00:52:12;;;;;;;62.60;24.48;;;;;;;-3.22;100.00;101839.09;2573388;55;20634;-70
2021/03/27 00:54:46;;;;;;;59.38;24.60;;;;;;;-3.26;100.00;101827.75;2573596;55;20136;-70
2021/03/27 00:57:22;;;;;;;48.97;22.30;;;;;;;-3.29;100.00;101829.50;2578759;55;20130;-71
2021/03/27 01:00:09;;;;;;;57.55;25.75;;;;;;;-3.13;100.00;101838.19;2578672;55;20127;-71
2021/03/27 01:02:55;;;;;;;56.30;25.15;;;;;;;-3.23;100.00;101830.37;2573811;55;20169;-71
2021/03/27 01:05:30;;;;;;;55.67;28.27;;;;;;;-3.29;100.00;101839.94;2578779;55;20166;-71
2021/03/27 01:08:05;;;;;;;50.35;24.60;;;;;;;-3.35;100.00;101832.97;2578779;55;20105;-71
2021/03/27 01:10:51;;;;;;;53.40;24.95;;;;;;;-3.32;100.00;101834.72;2578844;55;20510;-70
2021/03/27 01:13:28;;;;;;;52.35;24.35;;;;;;;-3.33;100.00;101844.28;2578990;55;20113;-70
2021/03/27 01:16:04;;;;;;;48.58;24.67;;;;;;;-3.34;100.00;101846.91;2573596;55;20109;-70
2021/03/27 01:18:38;;;;;;;54.25;24.30;;;;;;;-3.41;100.00;101844.28;2578844;55;20640;-70
2021/03/27 01:21:09;;;;;;;55.70;25.00;;;;;;;-3.41;100.00;101851.22;2573565;55;20113;-70
2021/03/27 01:23:38;;;;;;;50.88;22.98;;;;;;;-3.43;100.00;101850.37;2578800;55;20102;-71
2021/03/27 01:26:10;;;;;;;49.95;25.05;;;;;;;-3.50;100.00;101860.81;2578702;55;20121;-71
2021/03/27 01:28:42;;;;;;;51.78;24.05;;;;;;;-3.55;100.00;101853.84;2579019;55;20113;-71
2021/03/27 01:31:17;;;;;;;50.20;22.35;;;;;;;-3.60;100.00;101851.22;2578655;55;20511;-70
2021/03/27 01:33:57;;;;;;;46.15;22.70;;;;;;;-3.60;100.00;101864.28;2579020;55;20097;-70
2021/03/27 01:36:40;;;;;;;59.30;24.27;;;;;;;-3.63;100.00;101843.37;2578628;55;20131;-70
2021/03/27 01:39:14;;;;;;;63.78;27.75;;;;;;;-3.59;100.00;101862.50;2573424;55;20124;-71
2021/03/27 01:41:57;;;;;;;61.97;27.42;;;;;;;-3.56;100.00;101867.72;2573542;55;20136;-71
2021/03/27 01:44:45;;;;;;;57.97;25.58;;;;;;;-3.57;100.00;101871.22;2573630;55;20135;-70
2021/03/27 01:47:28;;;;;;;58.83;26.08;;;;;;;-3.59;100.00;101863.41;2573497;55;20199;-71
2021/03/27 01:50:22;;;;;;;60.12;27.23;;;;;;;-3.62;100.00;101859.91;2578589;55;20121;-71
2021/03/27 01:53:16;;;;;;;67.18;26.77;;;;;;;-3.64;100.00;101870.34;2573713;55;20114;-70
2021/03/27 01:56:01;;;;;;;75.70;28.08;;;;;;;-3.69;100.00;101866.84;2577039;55;20607;-71
2021/03/27 01:58:36;;;;;;;56.70;23.85;;;;;;;-3.83;100.00;101865.06;2573551;55;20113;-70
2021/03/27 02:01:09;;;;;;;51.25;23.70;;;;;;;-3.86;100.00;101862.44;2578667;55;20109;-71
2021/03/27 02:03:44;;;;;;;60.58;25.15;;;;;;;-3.85;100.00;101866.78;2573717;55;20113;-70
2021/03/27 02:06:16;;;;;;;60.05;24.52;;;;;;;-3.91;100.00;101866.75;2578609;55;20135;-71
2021/03/27 02:09:03;;;;;;;63.72;25.35;;;;;;;-3.83;100.00;101869.41;2578519;55;20116;-70
2021/03/27 02:11:49;;;;;;;57.22;24.75;;;;;;;-3.83;100.00;101880.69;2573388;55;20638;-70
2021/03/27 02:14:26;;;;;;;49.28;23.08;;;;;;;-3.84;100.00;101873.75;2573431;55;20121;-71
2021/03/27 02:17:02;;;;;;;51.63;22.40;;;;;;;-3.85;100.00;101876.38;2578491;55;20140;-71
2021/03/27 02:20:05;;;;;;;57.45;25.27;;;;;;;-3.77;100.00;101883.34;2573384;55;20652;-71
2021/03/27 02:22:43;;;;;;;56.10;22.73;;;;;;;-3.88;100.00;101887.66;2573364;55;20143;-70
2021/03/27 02:25:51;;;;;;;58.08;26.27;;;;;;;-3.83;100.00;101887.69;2578528;55;20109;-71
2021/03/27 02:28:35;;;;;;;51.92;25.33;;;;;;;-3.94;100.00;101890.22;2574202;55;20127;-70
2021/03/27 02:31:08;;;;;;;54.75;22.42;;;;;;;-4.02;100.00;101886.72;2573298;55;20128;-70
2021/03/27 02:33:44;;;;;;;50.72;23.33;;;;;;;-4.03;100.00;101887.56;2578581;55;20120;-71
2021/03/27 02:36:23;;;;;;;50.85;22.70;;;;;;;-3.97;100.00;101895.44;2573291;55;20125;-71
2021/03/27 02:39:11;;;;;;;46.97;21.87;;;;;;;-3.91;100.00;101895.44;2578431;55;20116;-71
2021/03/27 02:41:50;;;;;;;56.75;24.12;;;;;;;-3.97;100.00;101885.88;2578513;55;20504;-70
2021/03/27 02:44:30;;;;;;;52.30;22.87;;;;;;;-3.95;100.00;101896.31;2573399;55;20137;-70
2021/03/27 02:47:15;;;;;;;50.28;23.50;;;;;;;-3.93;100.00;101899.78;2578432;55;20117;-70
2021/03/27 02:49:52;;;;;;;56.08;24.87;;;;;;;-3.96;100.00;101905.00;2573466;55;20109;-70
2021/03/27 02:52:33;;;;;;;48.47;21.35;;;;;;;-3.98;100.00;101904.13;2578430;55;20108;-71
2021/03/27 02:55:10;;;;;;;48.72;22.75;;;;;;;-4.02;100.00;101904.97;2573733;55;20125;-70
2021/03/27 02:57:44;;;;;;;52.25;23.00;;;;;;;-4.08;100.00;101904.09;2573534;55;20268;-70
2021/03/27 03:00:20;;;;;;;44.05;23.48;;;;;;;-4.11;100.00;101906.69;2573228;55;20121;-71
2021/03/27 03:02:59;;;;;;;46.85;22.05;;;;;;;-4.10;100.00;101910.16;2573451;55;20147;-70
2021/03/27 03:05:38;;;;;;;55.08;22.85;;;;;;;-4.13;100.00;101907.53;2573562;55;20106;-70
2021/03/27 03:08:18;;;;;;;52.05;23.92;;;;;;;-4.18;100.00;101899.69;2578717;55;20618;-71
2021/03/27 03:10:57;;;;;;;48.25;22.33;;;;;;;-4.14;100.00;101911.87;2573234;55;20109;-71
2021/03/27 03:13:34;;;;;;;51.85;23.35;;;;;;;-4.14;100.00;101905.78;2573574;55;20101;-70
2021/03/27 03:16:15;;;;;;;55.60;26.77;;;;;;;-4.17;100.00;101900.53;2578829;55;20405;-70
2021/03/27 03:19:11;;;;;;;56.10;24.25;;;;;;;-4.17;100.00;101913.56;2574107;55;20159;-70
2021/03/27 03:21:44;;;;;;;65.80;27.02;;;;;;;-4.24;100.00;101910.06;2574031;55;20136;-70
2021/03/27 03:24:22;;;;;;;61.28;29.98;;;;;;;-4.24;100.00;101908.34;2579160;55;20118;-70
2021/03/27 03:27:08;;;;;;;51.83;25.70;;;;;;;-4.28;100.00;101910.94;2579026;55;20105;-70
2021/03/27 03:29:50;;;;;;;59.55;27.67;;;;;;;-4.37;100.00;101903.91;2573998;55;20178;-70
2021/03/27 03:32:23;;;;;;;;;;;;;;;-4.16;100.00;101908.37;2574217;55;20102;-71
2021/03/27 03:35:12;;;;;;;53.30;23.40;;;;;;;-4.23;100.00;101904.00;2574006;55;20005;-70
2021/03/27 03:37:56;;;;;;;50.75;22.90;;;;;;;-4.25;100.00;101913.53;2573917;55;20139;-70
2021/03/27 03:40:33;;;;;;;53.42;25.00;;;;;;;-4.29;100.00;101909.19;2573895;55;20132;-70
2021/03/27 03:43:16;;;;;;;57.50;25.30;;;;;;;-4.29;100.00;101901.37;2579240;55;20196;-70
2021/03/27 03:46:13;;;;;;;49.88;22.90;;;;;;;-4.27;100.00;101899.62;2573848;55;20169;-70
2021/03/27 03:49:02;;;;;;;52.28;26.35;;;;;;;-4.30;100.00;101907.44;2573782;55;20135;-70
2021/03/27 03:51:41;;;;;;;73.47;28.23;;;;;;;-4.39;100.00;101910.84;2579078;55;20123;-70
2021/03/27 03:54:25;;;;;;;57.93;26.83;;;;;;;-4.33;100.00;101916.97;2574217;55;20618;-70
2021/03/27 03:57:04;;;;;;;54.50;24.15;;;;;;;-4.36;100.00;101905.66;2578988;55;20102;-70
2021/03/27 03:59:42;;;;;;;50.75;28.05;;;;;;;-4.36;100.00;101906.53;2578940;55;20097;-70
2021/03/27 04:02:22;;;;;;;56.88;28.70;;;;;;;-4.35;100.00;101913.47;2574001;55;20481;-70
2021/03/27 04:04:57;;;;;;;53.87;25.40;;;;;;;-4.33;100.00;101916.97;2579036;55;20486;-70
2021/03/27 04:07:31;;;;;;;61.60;28.55;;;;;;;-4.27;100.00;101907.47;2578833;55;20634;-70
2021/03/27 04:10:05;;;;;;;39.63;21.00;;;;;;;-4.29;100.00;101903.97;2578975;55;20489;-71
2021/03/27 04:12:36;;;;;;;44.00;22.77;;;;;;;-4.25;100.00;101913.53;2578748;55;20128;-70
2021/03/27 04:15:16;;;;;;;41.50;23.92;;;;;;;-4.13;100.00;101929.25;2578945;55;20145;-70
2021/03/27 04:17:53;;;;;;;50.33;23.75;;;;;;;-4.06;100.00;101936.25;2573932;55;20117;-70
2021/03/27 04:20:26;;;;;;;47.50;23.52;;;;;;;-4.02;100.00;101931.03;2578851;55;20098;-70
2021/03/27 04:22:58;;;;;;;;;;;;;;;-3.84;100.00;101932.88;2574001;55;20649;-70
2021/03/27 04:25:38;;;;;;;40.70;22.95;;;;;;;-3.87;100.00;101935.44;2579193;55;20042;-70
2021/03/27 04:28:15;;;;;;;44.95;20.65;;;;;;;-3.84;100.00;101923.31;2573605;55;20117;-70
2021/03/27 04:30:56;;;;;;;46.30;23.50;;;;;;;-3.67;100.00;101932.94;2573933;55;20114;-70
2021/03/27 04:33:42;;;;;;;39.95;21.15;;;;;;;-3.48;100.00;101933.00;2573753;55;20131;-70
2021/03/27 04:36:18;;;;;;;39.50;20.42;;;;;;;-3.48;100.00;101933.88;2578897;55;20571;-69
2021/03/27 04:38:56;;;;;;;42.85;21.35;;;;;;;-3.34;100.00;101933.91;2579193;55;20113;-70
2021/03/27 04:41:38;;;;;;;44.55;21.42;;;;;;;-3.20;100.00;101938.31;2578691;55;20114;-70
2021/03/27 04:44:16;;;;;;;37.70;21.42;;;;;;;-2.95;100.00;101927.00;2578991;55;20101;-70
2021/03/27 04:46:55;;;;;;;44.13;25.20;;;;;;;-2.77;100.00;101929.63;2578736;55;20109;-70
2021/03/27 04:49:30;;;;;;;38.83;21.33;;;;;;;-2.69;100.00;101930.50;2573671;55;20493;-70
2021/03/27 04:52:12;;;;;;;38.42;21.55;;;;;;;-2.58;100.00;101935.72;2578752;55;20109;-70
2021/03/27 04:55:22;;;;;;;39.45;22.45;;;;;;;-2.44;100.00;101933.09;2578865;55;20124;-70
2021/03/27 04:57:58;;;;;;;;;;;;;;;-2.18;100.00;101933.03;2576901;55;20125;-70
2021/03/27 05:00:36;;;;;;;39.72;19.10;;;;;;;-2.05;100.00;101938.25;2578712;55;19985;-70
2021/03/27 05:03:16;;;;;;;40.97;20.90;;;;;;;-1.78;100.00;101941.66;2573656;55;20607;-70
2021/03/27 05:06:03;;;;;;;37.90;19.67;;;;;;;-1.58;100.00;101934.56;2573929;55;20109;-70
2021/03/27 05:08:59;;;;;;;36.95;19.25;;;;;;;-1.32;100.00;101944.03;2573660;55;20117;-71
2021/03/27 05:11:44;;;;;;;34.47;18.30;;;;;;;-1.16;100.00;101936.94;2578813;55;20124;-70
2021/03/27 05:14:43;;;;;;;34.92;19.27;;;;;;;-1.15;100.00;101943.06;2578810;55;20626;-71
2021/03/27 05:17:20;;;;;;;38.35;19.67;;;;;;;-1.14;100.00;101927.34;2578790;55;20123;-70
2021/03/27 05:20:00;;;;;;;38.30;22.35;;;;;;;-1.05;100.00;101936.00;2573543;55;20143;-70
2021/03/27 05:22:47;;;;;;;43.58;23.35;;;;;;;-0.84;100.00;101934.97;2578770;55;20105;-70
2021/03/27 05:25:25;;;;;;;44.08;23.70;;;;;;;-0.61;100.00;101928.66;2573665;55;20117;-70
2021/03/27 05:28:09;;;;;;;43.58;26.87;;;;;;;-0.45;100.00;101940.75;2573718;55;20135;-70
2021/03/27 05:30:50;;;;;;;49.60;27.65;;;;;;;-0.24;100.00;101932.72;2573702;55;20132;-70
2021/03/27 05:33:39;;;;;;;53.13;28.85;;;;;;;-0.01;100.00;101935.94;2573737;55;20129;-71
2021/03/27 05:36:33;;;;;;;52.33;29.02;;;;;;;0.16;100.00;101937.50;2573675;55;20104;-70
2021/03/27 05:39:18;;;;;;;44.30;26.70;;;;;;;0.32;100.00;101943.44;2578516;55;20109;-70
2021/03/27 05:42:16;;;;;;;48.28;25.08;;;;;;;0.48;100.00;101951.09;2573563;55;20592;-71
2021/03/27 05:45:16;;;;;;;46.13;23.42;;;;;;;0.69;100.00;101942.94;2567681;55;20106;-71
2021/03/27 05:48:40;;;;;;;31.92;18.20;;;;;;;0.92;100.00;101939.13;2573589;55;20127;-72
2021/03/27 05:51:53;;;;;;;29.08;19.05;;;;;;;1.11;100.00;101944.94;2578585;55;20109;-71
2021/03/27 05:55:09;;;;;;;33.45;16.75;;;;;;;1.38;100.00;101944.50;2573463;55;20147;-70
2021/03/27 05:58:08;;;;;;;28.92;14.95;;;;;;;1.67;100.00;101937.88;2573416;55;20121;-72
2021/03/27 06:00:49;;;;;;;28.02;15.93;;;;;;;1.91;100.00;101946.22;2558422;55;20115;-70
2021/03/27 06:03:48;;;;;;;28.17;16.58;;;;;;;2.18;100.00;101951.84;2578661;55;20121;-72
2021/03/27 06:06:36;;;;;;;27.55;15.02;;;;;;;2.46;100.00;101951.28;2573491;55;20599;-72
2021/03/27 06:09:47;;;;;;;21.48;12.98;;;;;;;2.62;100.00;101944.78;2578679;55;20116;-72
2021/03/27 06:12:37;;;;;;;21.67;12.50;;;;;;;2.91;100.00;101945.87;2578368;55;20113;-71
2021/03/27 06:15:15;;;;;;;19.98;11.77;;;;;;;3.11;100.00;101955.09;2573344;55;20121;-72
2021/03/27 06:18:14;;;;;;;19.62;12.15;;;;;;;3.32;99.84;101955.47;2573390;55;20120;-71
2021/03/27 06:21:05;;;;;;;22.08;12.27;;;;;;;3.56;99.03;101955.75;2578392;55;20108;-71
2021/03/27 06:23:56;;;;;;;19.17;10.55;;;;;;;3.75;98.73;101954.34;2578599;55;20112;-72
2021/03/27 06:27:13;;;;;;;21.55;12.07;;;;;;;3.94;97.90;101953.88;2575679;55;20175;-72
2021/03/27 06:30:14;;;;;;;20.90;11.63;;;;;;;4.07;96.11;101953.53;2573402;55;20116;-72
2021/03/27 06:33:24;;;;;;;22.87;11.52;;;;;;;4.35;95.80;101958.03;2572829;55;20117;-72
2021/03/27 06:36:22;;;;;;;15.30;10.32;;;;;;;4.45;93.91;101964.78;2578698;55;20629;-72
2021/03/27 06:39:19;;;;;;;18.83;10.10;;;;;;;4.50;92.81;101965.47;2563576;55;20218;-72
2021/03/27 06:42:26;;;;;;;19.20;10.50;;;;;;;4.54;93.22;101968.91;2577514;55;20114;-72
2021/03/27 06:45:40;;;;;;;19.87;10.07;;;;;;;4.51;92.25;101963.72;2578176;55;20132;-71
2021/03/27 06:48:46;;;;;;;20.08;10.23;;;;;;;4.62;91.99;101966.06;2573433;55;20119;-71
2021/03/27 06:51:55;;;;;;;19.50;10.93;;;;;;;4.94;91.73;101980.06;2572943;55;20117;-71
2021/03/27 06:54:36;;;;;;;21.70;12.30;;;;;;;5.00;89.44;101966.63;2573570;55;20615;-72
2021/03/27 06:57:23;;;;;;;21.75;11.27;;;;;;;5.10;88.81;101988.38;2578364;55;20473;-72
2021/03/27 07:00:23;;;;;;;14.98;10.30;;;;;;;5.29;88.49;101978.06;2578409;55;20554;-72
2021/03/27 07:03:54;;;;;;;19.83;10.33;;;;;;;5.43;88.44;101982.91;2578574;55;20154;-72
2021/03/27 07:07:07;;;;;;;16.35;11.18;;;;;;;5.53;87.54;101980.81;2573207;55;20294;-72
2021/03/27 07:10:23;;;;;;;18.30;11.45;;;;;;;5.81;88.24;101995.75;2573226;55;20121;-72
2021/03/27 07:13:15;;;;;;;19.90;12.73;;;;;;;5.89;85.62;101993.69;2573153;55;20527;-71
2021/03/27 07:16:01;;;;;;;18.92;11.05;;;;;;;5.89;85.35;101990.19;2573125;55;20539;-71
2021/03/27 07:19:00;;;;;;;22.27;12.60;;;;;;;6.00;84.95;102001.28;2573341;55;20113;-71
2021/03/27 07:21:38;;;;;;;23.23;10.27;;;;;;;6.02;84.53;101993.31;2571203;55;20132;-71
2021/03/27 07:24:26;;;;;;;22.50;12.55;;;;;;;5.89;84.42;101999.00;2578438;55;20109;-71
2021/03/27 07:27:35;;;;;;;20.17;10.57;;;;;;;6.02;84.71;101998.63;2573082;55;20126;-72
2021/03/27 07:30:13;;;;;;;16.80;10.48;;;;;;;6.01;83.60;101991.53;2578414;55;20109;-72
2021/03/27 07:33:02;;;;;;;19.27;12.10;;;;;;;5.97;84.22;101986.34;2578166;55;20686;-71
2021/03/27 07:35:52;;;;;;;24.00;12.35;;;;;;;6.23;83.45;101992.53;2573298;55;20117;-72
2021/03/27 07:38:48;;;;;;;18.37;11.02;;;;;;;6.30;83.44;101994.94;2566634;55;20120;-71
2021/03/27 07:41:57;;;;;;;17.77;11.32;;;;;;;6.36;82.36;101998.25;2568645;55;20127;-72
2021/03/27 07:44:46;;;;;;;18.17;11.25;;;;;;;6.37;81.91;101992.03;2567719;55;20128;-71
2021/03/27 07:47:44;;;;;;;20.95;10.40;;;;;;;6.74;81.72;101997.72;2573097;55;20121;-72
2021/03/27 07:50:35;;;;;;;19.50;11.25;;;;;;;7.10;79.71;101989.22;2573075;55;20132;-72
2021/03/27 07:53:24;;;;;;;16.10;10.73;;;;;;;7.18;79.63;101991.59;2578467;55;20140;-71
2021/03/27 07:56:21;;;;;;;18.98;9.63;;;;;;;7.41;78.64;101994.22;2573041;55;20110;-72
2021/03/27 07:59:04;;;;;;;19.92;10.50;;;;;;;7.35;77.60;102005.97;2578044;55;20125;-71
2021/03/27 08:02:04;;;;;;;20.98;10.52;;;;;;;7.55;78.37;101989.22;2573161;55;20131;-72
2021/03/27 08:05:23;;;;;;;15.88;9.80;;;;;;;7.60;77.77;101992.53;2566727;55;20116;-71
2021/03/27 08:08:18;;;;;;;18.90;9.77;;;;;;;7.55;76.83;101988.31;2573959;55;20646;-71
2021/03/27 08:11:10;;;;;;;19.15;9.70;;;;;;;7.65;77.18;101990.53;2573695;55;20133;-71
2021/03/27 08:14:07;;;;;;;21.80;9.70;;;;;;;8.00;76.31;101994.38;2579054;55;20109;-71
2021/03/27 08:16:48;;;;;;;17.77;9.35;;;;;;;8.17;74.38;101991.00;2573857;55;20122;-71
2021/03/27 08:19:45;;;;;;;16.12;10.93;;;;;;;8.40;74.53;101981.97;2573824;55;20125;-72
2021/03/27 08:22:57;;;;;;;13.77;8.70;;;;;;;8.61;72.69;101990.78;2569261;55;20124;-72
2021/03/27 08:25:37;;;;;;;18.85;9.30;;;;;;;8.57;70.96;101975.94;2568550;55;20634;-72
2021/03/27 08:28:41;;;;;;;12.25;7.43;;;;;;;8.65;70.78;101980.88;2574068;55;20739;-72
2021/03/27 08:31:55;;;;;;;12.90;8.30;;;;;;;8.66;69.96;101981.72;2573722;55;20131;-71
2021/03/27 08:34:54;;;;;;;12.68;6.37;;;;;;;8.52;69.77;101969.94;2556809;56;20173;-72
2021/03/27 08:37:38;;;;;;;11.98;7.60;;;;;;;8.65;69.10;101980.88;2573769;55;20512;-71
2021/03/27 08:40:34;;;;;;;17.70;10.05;;;;;;;8.88;69.10;101971.81;2578997;55;20480;-71
2021/03/27 08:43:52;;;;;;;32.22;20.67;;;;;;;9.12;68.30;101973.31;2578565;55;20124;-72
2021/03/27 08:46:44;;;;;;;17.10;8.80;;;;;;;9.05;67.00;101983.41;2578891;55;20499;-72
2021/03/27 08:49:55;;;;;;;13.45;6.25;;;;;;;9.23;66.11;101973.69;2578956;55;20162;-72
2021/03/27 08:53:02;;;;;;;13.10;6.07;;;;;;;9.11;66.52;101966.28;2556619;56;20118;-72
2021/03/27 08:55:42;;;;;;;8.32;4.50;;;;;;;9.22;63.44;101966.63;2560799;55;20109;-72
2021/03/27 08:58:40;;;;;;;10.10;4.75;;;;;;;9.51;63.98;101969.63;2573848;55;20121;-72
2021/03/27 09:01:42;;;;;;;9.82;4.50;;;;;;;9.64;62.01;101963.69;2577044;55;20106;-72
2021/03/27 09:04:34;;;;;;;9.27;4.50;;;;;;;9.67;61.56;101968.84;2573805;55;20117;-72
2021/03/27 09:07:30;;;;;;;7.75;4.55;;;;;;;10.00;61.89;101971.56;2578814;55;20127;-72
2021/03/27 09:10:22;;;;;;;9.00;4.82;;;;;;;10.23;60.61;101976.63;2573275;55;20139;-72
2021/03/27 09:13:28;;;;;;;11.25;5.35;;;;;;;10.27;60.83;101963.03;2578497;55;20131;-72
2021/03/27 09:16:31;;;;;;;9.25;4.68;;;;;;;10.45;60.81;101965.66;2578843;55;20114;-72
2021/03/27 09:19:46;;;;;;;13.30;6.05;;;;;;;10.58;58.72;101971.19;2578814;55;20117;-72
2021/03/27 09:22:57;;;;;;;11.00;6.85;;;;;;;10.08;59.91;101973.81;2573303;55;20126;-72
2021/03/27 09:25:50;;;;;;;13.13;6.68;;;;;;;9.38;61.79;101963.19;2578694;55;20519;-72
2021/03/27 09:28:32;;;;;;;;;;;;;;;9.30;63.06;101969.75;2579027;55;20136;-71
2021/03/27 09:31:27;;;;;;;8.98;5.15;;;;;;;9.04;62.70;101965.72;2573653;55;19999;-72
2021/03/27 09:34:02;;;;;;;13.68;7.07;;;;;;;8.94;63.15;101970.66;2578823;55;20145;-71
2021/03/27 09:36:41;;;;;;;17.83;8.02;;;;;;;8.89;64.30;101970.00;2578666;55;20131;-72
2021/03/27 09:39:23;;;;;;;10.38;5.07;;;;;;;9.17;62.33;101969.53;2578555;55;20158;-73
2021/03/27 09:42:07;;;;;;;15.88;6.07;;;;;;;9.23;62.76;101963.03;2573608;55;20123;-72
2021/03/27 09:45:08;;;;;;;9.43;3.90;;;;;;;9.48;61.21;101969.78;2578568;55;20128;-72
2021/03/27 09:48:19;;;;;;;6.95;4.70;;;;;;;9.65;60.47;101952.09;2573504;55;20127;-71
2021/03/27 09:51:05;;;;;;;63.30;25.00;;;;;;;9.80;60.76;101953.09;2571973;55;20113;-71
2021/03/27 09:53:47;;;;;;;20.37;8.15;;;;;;;10.20;59.91;101958.09;2578665;55;20125;-72
2021/03/27 09:56:37;;;;;;;25.35;11.48;;;;;;;10.55;58.71;101968.69;2578694;55;20112;-72
2021/03/27 09:59:25;;;;;;;90.07;48.05;;;;;;;10.51;57.54;101965.34;2578678;55;20116;-72
2021/03/27 10:02:03;;;;;;;7.90;4.00;;;;;;;10.54;56.35;101969.66;2578384;55;20186;-72
2021/03/27 10:04:50;;;;;;;8.20;4.37;;;;;;;10.47;57.26;101965.59;2573510;55;20139;-72
2021/03/27 10:07:33;;;;;;;5.97;4.68;;;;;;;10.41;56.63;101974.75;2578578;55;20128;-72
2021/03/27 10:10:25;;;;;;;7.53;4.45;;;;;;;10.54;57.73;101974.97;2573498;55;20125;-72
2021/03/27 10:12:59;;;;;;;;;;;;;;;10.88;55.52;101967.75;2573508;55;20538;-73
2021/03/27 10:15:37;;;;;;;8.40;3.97;;;;;;;10.63;55.71;101962.94;2578753;55;20749;-72
2021/03/27 10:18:15;;;;;;;8.27;4.43;;;;;;;10.38;56.34;101970.44;2578567;55;20121;-72
2021/03/27 10:20:50;;;;;;;8.38;4.32;;;;;;;10.64;57.24;101962.84;2578566;55;20135;-72
2021/03/27 10:23:34;;;;;;;8.57;4.30;;;;;;;10.86;54.67;101954.47;2573291;55;20113;-72
2021/03/27 10:26:24;;;;;;;7.80;4.47;;;;;;;11.02;56.14;101958.09;2573412;55;20105;-72
2021/03/27 10:29:04;;;;;;;7.20;3.63;;;;;;;10.93;54.18;101965.69;2573228;55;20113;-72
2021/03/27 10:31:39;;;;;;;7.87;3.72;;;;;;;10.99;55.17;101953.81;2578516;55;20120;-72
2021/03/27 10:34:24;;;;;;;5.22;3.17;;;;;;;11.25;52.78;101962.09;2573382;55;20117;-72
2021/03/27 10:37:04;;;;;;;7.10;3.50;;;;;;;10.86;53.02;101964.31;2573480;55;20117;-72
2021/03/27 10:40:00;;;;;;;5.90;2.97;;;;;;;10.95;53.66;101962.91;2573250;55;20113;-72
2021/03/27 10:43:04;;;;;;;8.82;3.83;;;;;;;10.65;53.29;101935.22;2578340;55;20525;-72
2021/03/27 10:45:53;;;;;;;7.37;3.40;;;;;;;10.40;54.50;101971.22;2573256;55;20164;-72
2021/03/27 10:48:59;;;;;;;6.70;3.92;;;;;;;10.23;55.32;101965.94;2573357;55;20140;-72
2021/03/27 10:51:49;;;;;;;8.48;4.12;;;;;;;9.96;56.39;101969.13;2573315;55;20603;-72
2021/03/27 10:54:42;;;;;;;7.10;3.37;;;;;;;10.16;55.41;101968.94;2578517;55;20120;-72
2021/03/27 10:57:26;;;;;;;9.88;4.78;;;;;;;10.38;55.63;101967.78;2573442;55;20121;-72
2021/03/27 11:00:05;;;;;;;13.52;5.50;;;;;;;10.44;54.97;101964.81;2578410;55;20165;-72
2021/03/27 11:02:57;;;;;;;12.52;6.03;;;;;;;10.75;56.22;101969.41;2578255;55;20120;-72
2021/03/27 11:05:50;;;;;;;8.27;4.72;;;;;;;11.03;54.06;101959.84;2578221;55;20116;-72
2021/03/27 11:09:17;;;;;;;7.03;3.12;;;;;;;11.14;52.95;101962.75;2578572;55;20110;-72
2021/03/27 11:12:21;;;;;;;12.40;4.90;;;;;;;11.10;52.71;101963.84;2578299;55;20717;-72
2021/03/27 11:15:26;;;;;;;7.53;3.78;;;;;;;10.95;53.00;101957.56;2573513;55;20118;-72
2021/03/27 11:18:39;;;;;;;7.00;3.35;;;;;;;10.86;53.28;101958.97;2573419;55;20117;-72
2021/03/27 11:21:31;;;;;;;8.45;3.80;;;;;;;11.18;51.99;101958.94;2565845;55;20120;-72
2021/03/27 11:24:32;;;;;;;7.87;3.35;;;;;;;10.97;52.10;101953.00;2578278;55;20128;-72
2021/03/27 11:27:40;;;;;;;7.55;3.62;;;;;;;11.02;52.00;101940.25;2578210;55;20683;-72
2021/03/27 11:30:17;;;;;;;8.77;3.80;;;;;;;10.90;51.99;101957.00;2578200;55;20123;-72
2021/03/27 11:32:50;;;;;;;7.00;4.07;;;;;;;10.93;53.20;101959.47;2578169;55;20507;-72
2021/03/27 11:35:24;;;;;;;9.45;4.70;;;;;;;11.16;53.94;101960.84;2578406;55;20127;-72
2021/03/27 11:38:10;;;;;;;9.70;3.67;;;;;;;11.48;53.30;101954.56;2573955;55;20155;-72
2021/03/27 11:40:47;;;;;;;6.95;4.20;;;;;;;11.65;50.84;101953.56;2578876;55;20178;-72
2021/03/27 11:43:34;;;;;;;7.60;3.37;;;;;;;11.95;49.96;101963.34;2579011;55;20104;-72
2021/03/27 11:46:07;;;;;;;9.00;3.95;;;;;;;11.80;49.29;101963.28;2579172;55;20121;-72
2021/03/27 11:48:44;;;;;;;10.02;4.85;;;;;;;11.78;48.79;101962.53;2579014;55;20136;-72
2021/03/27 11:51:20;;;;;;;24.05;8.30;;;;;;;11.76;49.86;101959.09;2573943;55;20148;-72
2021/03/27 11:54:22;;;;;;;5.28;3.42;;;;;;;11.99;50.72;101956.00;2573976;55;20101;-72
2021/03/27 11:57:19;;;;;;;9.07;3.80;;;;;;;12.02;49.45;101964.69;2574575;55;20164;-74
2021/03/27 12:02:56;;;;;;;;;;;;;;;12.12;50.28;101959.66;2575172;55;20124;-73
2021/03/27 12:05:32;;;;;;;88.90;38.17;;;;;;;11.50;49.42;101953.50;2574573;55;20439;-73
2021/03/27 12:08:15;;;;;;;60.30;30.77;;;;;;;11.54;50.85;101955.06;2574171;55;20126;-75
2021/03/27 12:11:00;;;;;;;12.23;6.62;;;;;;;11.50;50.33;101961.50;2573473;55;20125;-76
2021/03/27 12:13:39;;;;;;;9.45;5.95;;;;;;;11.23;50.04;101956.88;2573242;55;20110;-75
2021/03/27 12:16:28;;;;;;;12.85;4.75;;;;;;;10.94;50.81;101945.19;2573094;55;20624;-75
2021/03/27 12:19:13;;;;;;;5.82;3.40;;;;;;;10.65;51.43;101953.91;2573729;55;20128;-75
2021/03/27 12:21:53;;;;;;;16.12;7.20;;;;;;;10.41;52.75;101954.28;2568291;55;20561;-75
2021/03/27 12:24:37;;;;;;;19.65;8.57;;;;;;;10.41;53.58;101959.63;2574034;55;20117;-73
2021/03/27 12:27:19;;;;;;;22.52;10.02;;;;;;;10.36;53.24;101940.31;2573580;55;20167;-74
2021/03/27 12:30:00;;;;;;;30.12;14.25;;;;;;;10.32;53.59;101944.09;2568161;55;20130;-73
2021/03/27 12:32:38;;;;;;;13.93;5.75;;;;;;;10.40;53.13;101957.88;2573008;55;20114;-72
2021/03/27 12:35:20;;;;;;;10.30;4.32;;;;;;;10.58;53.47;101944.50;2568307;55;20531;-72
2021/03/27 12:38:04;;;;;;;7.25;3.60;;;;;;;10.58;52.29;101931.16;2568335;55;20133;-73
2021/03/27 12:40:37;;;;;;;19.05;7.57;;;;;;;10.79;52.00;101939.78;2568254;55;20114;-72
2021/03/27 12:43:10;;;;;;;11.70;4.70;;;;;;;10.91;53.12;101940.88;2573163;55;20669;-72